Huvudsida
METAR-TAF:

METAR-TAF

Flygplatser :

Åbo flygplats

Åbo, Finland

latitud: 60-31N, longitud: 022-16E, höjd: 49 m

Aktuellt väderrapport

Denna rapport gjordes för 32 minuter sedan, klockan 07:20 UTC
Vind 5 kt från väst/sydväst
Temperatur 12°C
Fuktighet 88%
Tryck 1012 hPa
Sikt: 4900 m
fuktdis

METAR: EFTU 180720Z AUTO 24005KT 4900 BR OVC005/// 12/10 Q1012

Tid: 10:52 (07:52 UTC)

Väderprognos

Denna rapport gjordes för 2 timmar och 27 minuter sedan, klockan 05:25 UTC
Prognos gäller från 18 kl. 06 UTC till 19 kl. 06 UTC
Vind 6 kt från sydväst
Sikt: 4000 m
Spridda moln på en höjd av 500 ft
Brutna moln på en höjd av 3000 ft
fuktdis
Temporärt
från 18 kl. 06 UTC till 18 kl. 10 UTC
Sikt: 5000 m
Brutna moln på en höjd av 500 ft
lätt regn
Blir
från 18 kl. 10 UTC till 18 kl. 12 UTC
Vind 10 kt från väst
Sikt 10 km eller mer
Brutna moln på en höjd av 1500 ft

TAF: EFTU 180525Z 1806/1906 22006KT 4000 BR SCT005 BKN030 TEMPO 1806/1810 5000 -RA BKN005 BECMG 1810/1812 28010KT 9999 NSW BKN015

Aktuella väderrapporter och prognoser från 4000 flygplatser (METAR- och TAF-rapporter).

De tillgängliga stationerna syns som gula och röda prickar på kartan.

För musen över prickarna för att se namnen på stationerna.

Klicka sedan för att få väderrapporter och prognoser.

För att ändra kartan: Klicka på de gröna knapparna med ett svart kors på för att zooma in; den gröna knappen med ett streck på för att zooma ut; eller på de gröna pilarna för angränsande kartor.


METAR-TAF: